sensor_id;sensor_type;location;lat;lon;timestamp;pressure;altitude;pressure_sealevel;temperature;humidity
22311;BME280;11323;49.610;11.016;2023-04-01T00:01:54;96656.63;;;15.46;68.38
22311;BME280;11323;49.610;11.016;2023-04-01T00:06:54;96654.81;;;15.47;68.37
22311;BME280;11323;49.610;11.016;2023-04-01T00:11:55;96661.88;;;15.46;68.32
22311;BME280;11323;49.610;11.016;2023-04-01T00:16:55;96649.16;;;15.43;68.53
22311;BME280;11323;49.610;11.016;2023-04-01T00:21:55;96651.78;;;15.43;68.62
22311;BME280;11323;49.610;11.016;2023-04-01T00:26:57;96648.38;;;15.42;68.41
22311;BME280;11323;49.610;11.016;2023-04-01T00:31:57;96655.88;;;15.39;68.65
22311;BME280;11323;49.610;11.016;2023-04-01T00:36:58;96643.75;;;15.38;68.48
22311;BME280;11323;49.610;11.016;2023-04-01T00:41:59;96645.38;;;15.39;68.47
22311;BME280;11323;49.610;11.016;2023-04-01T00:47:00;96651.63;;;15.38;68.49
22311;BME280;11323;49.610;11.016;2023-04-01T00:52:03;96655.28;;;15.37;68.63
22311;BME280;11323;49.610;11.016;2023-04-01T00:57:21;96663.16;;;15.37;68.63
22311;BME280;11323;49.610;11.016;2023-04-01T01:02:23;96651.25;;;15.34;68.83
22311;BME280;11323;49.610;11.016;2023-04-01T01:13:03;96663.16;;;15.37;68.54
22311;BME280;11323;49.610;11.016;2023-04-01T01:34:53;96647.03;;;15.33;68.75
22311;BME280;11323;49.610;11.016;2023-04-01T01:39:25;96639.56;;;15.30;68.64
22311;BME280;11323;49.610;11.016;2023-04-01T01:44:30;96640.56;;;15.29;68.41
22311;BME280;11323;49.610;11.016;2023-04-01T01:49:32;96638.19;;;15.27;68.93
22311;BME280;11323;49.610;11.016;2023-04-01T01:54:34;96640.56;;;15.29;68.54
22311;BME280;11323;49.610;11.016;2023-04-01T01:59:38;96627.69;;;15.27;68.81
22311;BME280;11323;49.610;11.016;2023-04-01T02:04:42;96620.81;;;15.26;68.51
22311;BME280;11323;49.610;11.016;2023-04-01T02:09:44;96621.81;;;15.25;68.88
22311;BME280;11323;49.610;11.016;2023-04-01T02:14:51;96611.75;;;15.22;68.84
22311;BME280;11323;49.610;11.016;2023-04-01T02:19:58;96622.84;;;15.24;68.66
22311;BME280;11323;49.610;11.016;2023-04-01T02:25:06;96622.84;;;15.24;68.73
22311;BME280;11323;49.610;11.016;2023-04-01T02:30:07;96623.25;;;15.21;68.97
22311;BME280;11323;49.610;11.016;2023-04-01T02:35:10;96632.97;;;15.21;68.86
22311;BME280;11323;49.610;11.016;2023-04-01T02:40:13;96630.72;;;15.24;68.76
22311;BME280;11323;49.610;11.016;2023-04-01T02:45:14;96635.38;;;15.22;68.49
22311;BME280;11323;49.610;11.016;2023-04-01T02:50:15;96639.00;;;15.21;68.69
22311;BME280;11323;49.610;11.016;2023-04-01T02:55:16;96645.88;;;15.22;68.61
22311;BME280;11323;49.610;11.016;2023-04-01T03:00:16;96654.56;;;15.23;68.78
22311;BME280;11323;49.610;11.016;2023-04-01T03:05:19;96651.34;;;15.21;68.85
22311;BME280;11323;49.610;11.016;2023-04-01T03:10:19;96651.09;;;15.22;68.67
22311;BME280;11323;49.610;11.016;2023-04-01T03:15:20;96647.88;;;15.20;68.72
22311;BME280;11323;49.610;11.016;2023-04-01T03:20:21;96658.81;;;15.17;68.84
22311;BME280;11323;49.610;11.016;2023-04-01T03:25:21;96655.19;;;15.18;68.90
22311;BME280;11323;49.610;11.016;2023-04-01T03:30:23;96651.75;;;15.18;68.70
22311;BME280;11323;49.610;11.016;2023-04-01T03:35:24;96659.84;;;15.16;68.99
22311;BME280;11323;49.610;11.016;2023-04-01T03:40:25;96660.63;;;15.17;68.88
22311;BME280;11323;49.610;11.016;2023-04-01T03:45:27;96664.88;;;15.18;68.84
22311;BME280;11323;49.610;11.016;2023-04-01T03:50:27;96665.09;;;15.16;68.80
22311;BME280;11323;49.610;11.016;2023-04-01T03:55:27;96672.13;;;15.16;68.66
22311;BME280;11323;49.610;11.016;2023-04-01T04:00:29;96670.53;;;15.14;68.86
22311;BME280;11323;49.610;11.016;2023-04-01T04:05:30;96673.38;;;15.13;68.77
22311;BME280;11323;49.610;11.016;2023-04-01T04:10:31;96680.22;;;15.14;68.92
22311;BME280;11323;49.610;11.016;2023-04-01T04:15:31;96677.59;;;15.14;68.94
22311;BME280;11323;49.610;11.016;2023-04-01T04:20:32;96674.59;;;15.10;68.96
22311;BME280;11323;49.610;11.016;2023-04-01T04:25:32;96685.69;;;15.12;68.85
22311;BME280;11323;49.610;11.016;2023-04-01T04:30:33;96675.84;;;15.08;68.90
22311;BME280;11323;49.610;11.016;2023-04-01T04:35:34;96678.66;;;15.06;68.70
22311;BME280;11323;49.610;11.016;2023-04-01T04:40:37;96679.47;;;15.07;68.85
22311;BME280;11323;49.610;11.016;2023-04-01T04:45:38;96683.09;;;15.06;68.89
22311;BME280;11323;49.610;11.016;2023-04-01T04:50:40;96691.56;;;15.08;68.78
22311;BME280;11323;49.610;11.016;2023-04-01T04:55:48;96691.56;;;15.08;68.98
22311;BME280;11323;49.610;11.016;2023-04-01T05:01:07;96688.75;;;15.03;68.88
22311;BME280;11323;49.610;11.016;2023-04-01T05:06:09;96681.09;;;15.01;69.23
22311;BME280;11323;49.610;11.016;2023-04-01T05:11:15;96686.72;;;15.05;68.94
22311;BME280;11323;49.610;11.016;2023-04-01T05:16:19;96692.38;;;15.02;68.99
22311;BME280;11323;49.610;11.016;2023-04-01T05:21:20;96694.78;;;15.03;68.96
22311;BME280;11323;49.610;11.016;2023-04-01T05:26:21;96684.53;;;15.02;68.93
22311;BME280;11323;49.610;11.016;2023-04-01T05:31:21;96691.97;;;15.05;69.08
22311;BME280;11323;49.610;11.016;2023-04-01T05:36:25;96689.53;;;15.03;69.00
22311;BME280;11323;49.610;11.016;2023-04-01T05:41:30;96692.38;;;15.02;68.99
22311;BME280;11323;49.610;11.016;2023-04-01T05:46:31;96684.34;;;14.96;69.15
22311;BME280;11323;49.610;11.016;2023-04-01T05:51:39;96678.28;;;14.96;69.15
22311;BME280;11323;49.610;11.016;2023-04-01T05:56:40;96683.91;;;15.00;69.02
22311;BME280;11323;49.610;11.016;2023-04-01T06:01:41;96677.06;;;14.98;69.06
22311;BME280;11323;49.610;11.016;2023-04-01T06:06:42;96696.03;;;15.01;68.96
22311;BME280;11323;49.610;11.016;2023-04-01T06:28:27;96700.09;;;14.96;69.08
22311;BME280;11323;49.610;11.016;2023-04-01T06:34:06;96689.59;;;14.96;69.14
22311;BME280;11323;49.610;11.016;2023-04-01T06:50:30;96704.09;;;15.06;69.69
22311;BME280;11323;49.610;11.016;2023-04-01T06:56:10;96699.19;;;15.16;69.90
22311;BME280;11323;49.610;11.016;2023-04-01T07:01:54;96692.91;;;15.24;69.98
22311;BME280;11323;49.610;11.016;2023-04-01T07:06:58;96690.25;;;15.31;69.78
22311;BME280;11323;49.610;11.016;2023-04-01T07:12:11;96685.75;;;15.38;70.06
22311;BME280;11323;49.610;11.016;2023-04-01T07:17:39;96683.75;;;15.40;70.15
22311;BME280;11323;49.610;11.016;2023-04-01T07:22:45;96678.50;;;15.40;69.78
22311;BME280;11323;49.610;11.016;2023-04-01T07:28:14;96690.16;;;15.44;70.01
22311;BME280;11323;49.610;11.016;2023-04-01T07:49:56;96702.88;;;15.47;69.78
22311;BME280;11323;49.610;11.016;2023-04-01T07:55:15;96709.13;;;15.46;69.88
22311;BME280;11323;49.610;11.016;2023-04-01T08:00:29;96704.47;;;15.48;69.69
22311;BME280;11323;49.610;11.016;2023-04-01T08:06:12;96711.34;;;15.49;69.67
22311;BME280;11323;49.610;11.016;2023-04-01T08:23:12;96702.28;;;15.45;69.56
22311;BME280;11323;49.610;11.016;2023-04-01T08:33:42;96711.16;;;15.44;69.46
22311;BME280;11323;49.610;11.016;2023-04-01T08:38:54;96706.13;;;15.42;69.33
22311;BME280;11323;49.610;11.016;2023-04-01T08:49:50;96702.03;;;15.53;69.40
22311;BME280;11323;49.610;11.016;2023-04-01T09:00:44;96703.44;;;15.56;69.46
22311;BME280;11323;49.610;11.016;2023-04-01T09:06:51;96714.31;;;15.59;69.57
22311;BME280;11323;49.610;11.016;2023-04-01T09:27:10;96699.94;;;15.62;69.47
22311;BME280;11323;49.610;11.016;2023-04-01T09:38:00;96708.66;;;15.63;69.33
22311;BME280;11323;49.610;11.016;2023-04-01T09:59:52;96712.28;;;15.62;69.13
22311;BME280;11323;49.610;11.016;2023-04-01T10:16:47;96727.66;;;15.58;69.32
22311;BME280;11323;49.610;11.016;2023-04-01T10:27:58;96706.25;;;15.54;69.18
22311;BME280;11323;49.610;11.016;2023-04-01T11:08:37;96720.66;;;15.77;69.25
22311;BME280;11323;49.610;11.016;2023-04-01T11:24:54;96711.81;;;15.71;69.04
22311;BME280;11323;49.610;11.016;2023-04-01T11:30:22;96713.03;;;15.69;68.98
22311;BME280;11323;49.610;11.016;2023-04-01T11:57:43;96719.50;;;15.73;68.87
22311;BME280;11323;49.610;11.016;2023-04-01T12:13:46;96730.75;;;15.80;69.11
22311;BME280;11323;49.610;11.016;2023-04-01T12:18:54;96722.72;;;15.75;69.46
22311;BME280;11323;49.610;11.016;2023-04-01T12:45:29;96726.09;;;15.82;68.98
22311;BME280;11323;49.610;11.016;2023-04-01T12:55:51;96737.63;;;15.81;69.02
22311;BME280;11323;49.610;11.016;2023-04-01T13:07:11;96732.13;;;15.83;68.86
22311;BME280;11323;49.610;11.016;2023-04-01T13:23:51;96751.75;;;15.80;68.76
22311;BME280;11323;49.610;11.016;2023-04-01T13:28:49;96734.22;;;15.74;68.89
22311;BME280;11323;49.610;11.016;2023-04-01T13:34:35;96750.16;;;15.79;68.87
22311;BME280;11323;49.610;11.016;2023-04-01T13:39:52;96746.13;;;15.77;69.11
22311;BME280;11323;49.610;11.016;2023-04-01T13:55:51;96762.03;;;15.88;69.10
22311;BME280;11323;49.610;11.016;2023-04-01T14:06:11;96759.22;;;15.90;69.10
22311;BME280;11323;49.610;11.016;2023-04-01T14:11:22;96762.84;;;15.89;69.09
22311;BME280;11323;49.610;11.016;2023-04-01T14:32:52;96777.38;;;15.92;68.88
22311;BME280;11323;49.610;11.016;2023-04-01T14:43:32;96777.38;;;15.92;68.89
22311;BME280;11323;49.610;11.016;2023-04-01T14:54:19;96786.50;;;15.89;68.69
22311;BME280;11323;49.610;11.016;2023-04-01T15:04:52;96789.34;;;15.87;68.64
22311;BME280;11323;49.610;11.016;2023-04-01T15:10:07;96790.56;;;15.85;68.64
22311;BME280;11323;49.610;11.016;2023-04-01T15:15:51;96795.81;;;15.85;68.75
22311;BME280;11323;49.610;11.016;2023-04-01T15:26:38;96802.69;;;15.86;68.91
22311;BME280;11323;49.610;11.016;2023-04-01T15:31:59;96803.50;;;15.86;68.79
22311;BME280;11323;49.610;11.016;2023-04-01T15:42:14;96811.53;;;15.92;68.78
22311;BME280;11323;49.610;11.016;2023-04-01T15:53:40;96821.03;;;15.93;68.68
22311;BME280;11323;49.610;11.016;2023-04-01T16:10:16;96832.56;;;15.92;68.95
22311;BME280;11323;49.610;11.016;2023-04-01T16:21:02;96831.38;;;15.87;69.07
22311;BME280;11323;49.610;11.016;2023-04-01T16:26:09;96845.09;;;15.89;68.76
22311;BME280;11323;49.610;11.016;2023-04-01T16:36:37;96847.16;;;15.87;68.41
22311;BME280;11323;49.610;11.016;2023-04-01T16:41:48;96849.78;;;15.87;68.77
22311;BME280;11323;49.610;11.016;2023-04-01T16:47:11;96835.84;;;15.73;68.73
22311;BME280;11323;49.610;11.016;2023-04-01T16:52:15;96856.44;;;15.83;68.68
22311;BME280;11323;49.610;11.016;2023-04-01T16:57:25;96864.31;;;15.83;68.67
22311;BME280;11323;49.610;11.016;2023-04-01T17:02:31;96876.03;;;15.81;68.58
22311;BME280;11323;49.610;11.016;2023-04-01T17:07:56;96869.19;;;15.86;68.63
22311;BME280;11323;49.610;11.016;2023-04-01T17:18:16;96879.47;;;15.88;68.75
22311;BME280;11323;49.610;11.016;2023-04-01T17:23:28;96886.56;;;15.87;68.87
22311;BME280;11323;49.610;11.016;2023-04-01T17:28:47;96894.00;;;15.90;68.65
22311;BME280;11323;49.610;11.016;2023-04-01T18:11:09;96942.13;;;15.84;68.92
22311;BME280;11323;49.610;11.016;2023-04-01T18:16:30;96934.41;;;15.83;68.63
22311;BME280;11323;49.610;11.016;2023-04-01T18:21:54;96942.50;;;15.81;68.80
22311;BME280;11323;49.610;11.016;2023-04-01T18:27:18;96947.16;;;15.79;68.70
22311;BME280;11323;49.610;11.016;2023-04-01T18:32:42;96963.53;;;15.81;68.65
22311;BME280;11323;49.610;11.016;2023-04-01T18:37:50;96955.88;;;15.80;68.64
22311;BME280;11323;49.610;11.016;2023-04-01T18:43:18;96972.81;;;15.77;68.44
22311;BME280;11323;49.610;11.016;2023-04-01T18:48:40;96978.09;;;15.77;68.75
22311;BME280;11323;49.610;11.016;2023-04-01T18:53:48;96990.63;;;15.75;68.62
22311;BME280;11323;49.610;11.016;2023-04-01T18:59:04;96996.28;;;15.72;68.83
22311;BME280;11323;49.610;11.016;2023-04-01T19:04:15;96998.91;;;15.72;68.65
22311;BME280;11323;49.610;11.016;2023-04-01T19:14:55;97007.19;;;15.69;68.57
22311;BME280;11323;49.610;11.016;2023-04-01T19:20:43;97009.03;;;15.68;68.58
22311;BME280;11323;49.610;11.016;2023-04-01T19:25:30;97010.84;;;15.68;68.61
22311;BME280;11323;49.610;11.016;2023-04-01T19:36:38;97014.91;;;15.64;68.76
22311;BME280;11323;49.610;11.016;2023-04-01T19:41:47;97021.78;;;15.65;68.60
22311;BME280;11323;49.610;11.016;2023-04-01T19:46:56;97019.34;;;15.63;68.27
22311;BME280;11323;49.610;11.016;2023-04-01T19:52:20;97024.59;;;15.63;68.40
22311;BME280;11323;49.610;11.016;2023-04-01T20:02:37;97027.44;;;15.62;68.36
22311;BME280;11323;49.610;11.016;2023-04-01T20:07:52;97033.69;;;15.60;68.49
22311;BME280;11323;49.610;11.016;2023-04-01T20:13:05;97039.94;;;15.59;68.45
22311;BME280;11323;49.610;11.016;2023-04-01T20:19:21;97044.41;;;15.52;68.44
22311;BME280;11323;49.610;11.016;2023-04-01T20:23:56;97056.53;;;15.53;68.29
22311;BME280;11323;49.610;11.016;2023-04-01T20:39:52;97050.06;;;15.49;68.52
22311;BME280;11323;49.610;11.016;2023-04-01T21:11:53;97082.78;;;15.47;68.53
22311;BME280;11323;49.610;11.016;2023-04-01T21:38:44;97115.91;;;15.41;68.75
22311;BME280;11323;49.610;11.016;2023-04-01T21:44:20;97132.25;;;15.43;68.45
22311;BME280;11323;49.610;11.016;2023-04-01T21:49:42;97125.56;;;15.34;68.75
22311;BME280;11323;49.610;11.016;2023-04-01T22:10:41;97148.41;;;15.33;68.50
22311;BME280;11323;49.610;11.016;2023-04-01T22:16:02;97150.19;;;15.33;68.46
22311;BME280;11323;49.610;11.016;2023-04-01T22:21:24;97159.31;;;15.37;68.17
22311;BME280;11323;49.610;11.016;2023-04-01T22:26:33;97158.28;;;15.31;68.82
22311;BME280;11323;49.610;11.016;2023-04-01T22:31:44;97167.56;;;15.34;68.59
22311;BME280;11323;49.610;11.016;2023-04-01T22:37:56;97168.56;;;15.33;68.71
22311;BME280;11323;49.610;11.016;2023-04-01T22:42:57;97176.63;;;15.24;68.67
22311;BME280;11323;49.610;11.016;2023-04-01T22:48:26;97189.00;;;15.31;68.69
22311;BME280;11323;49.610;11.016;2023-04-01T22:59:13;97191.00;;;15.28;68.86
22311;BME280;11323;49.610;11.016;2023-04-01T23:04:22;97188.34;;;15.22;68.76
22311;BME280;11323;49.610;11.016;2023-04-01T23:09:27;97193.97;;;15.19;68.72
22311;BME280;11323;49.610;11.016;2023-04-01T23:14:34;97201.88;;;15.25;68.79
22311;BME280;11323;49.610;11.016;2023-04-01T23:19:48;97212.38;;;15.25;68.78
22311;BME280;11323;49.610;11.016;2023-04-01T23:24:58;97210.75;;;15.24;68.92
22311;BME280;11323;49.610;11.016;2023-04-01T23:30:02;97199.03;;;15.20;68.80
22311;BME280;11323;49.610;11.016;2023-04-01T23:35:15;97221.06;;;15.19;69.20
22311;BME280;11323;49.610;11.016;2023-04-01T23:40:17;97224.47;;;15.20;68.87
22311;BME280;11323;49.610;11.016;2023-04-01T23:45:18;97227.31;;;15.18;68.72
22311;BME280;11323;49.610;11.016;2023-04-01T23:50:23;97229.34;;;15.23;68.71
22311;BME280;11323;49.610;11.016;2023-04-01T23:55:27;97237.38;;;15.21;68.78
